Kezdőlap
METAR-TAF:

METAR-TAF

Repülőterek :

Chambéry-Aix-les-Bains, Franciaország

földrajzi szélesség: 45-39N, földrajzi hosszúság: 005-53E, magasság: 235 m

Jelenlegi meteorológiai megfigyelések

A jelentés 24 perccel ezelõtt készült, 23:30 UTC
Szélcsend
Hőmérséklet 2°C
Páratartalom 87%
Légköri nyomás 1033 hPa
Látótávolság 10 km, vagy több
felhőtlen 1500 m magasságban, és nincs gomolyfelhõ

METAR: LFLB 222330Z AUTO 00000KT CAVOK 02/00 Q1033 NOSIG

Idő: 00:54 (23:54 UTC)

Előrejelzés

A jelentés 6 órával és 54 perccel ezelõtt készült, 17:00 UTC
Az előrejelzés 22-én 18 óra UTC és 23-én 18 óra UTC között érvényes
Különbözõ irányokból fújó szél 3 kt
Látótávolság 10 km, vagy több
felhőtlen 1500 m magasságban, és nincs gomolyfelhõ

TAF: LFLB 221700Z 2218/2318 VRB03KT CAVOK

Meteorológiai megfigyelések és előrejelzések több, mint 4000 repülőtéren (METAR és TAF jelentéseket).

A térképen piros és sárga pontok jelzik az elérhető meteorológiai állomásokat.

Mozgassa az egeret a pont fölött, hogy megjelenjen az állomás neve.

Azután kattintson az időjárási megfigyelések és előrejelzések megtekintéséhez.

A térkép megváltoztatása: kattintson a fekete keresztel jelölt zöld gombra ráközelítéshez, a vonallal jelölt zöld gombra távolításhoz, vagy a zöld nyilakra a szomszédos térképek eléréséhez.


METAR-TAF: